Time;durP1;ratioP1;P1;durP2;ratioP2;P2;SDS_P1;SDS_P2;PMS_P1;PMS_P2;Temp;Humidity;BMP_temperature;BMP_pressure;BME280_temperature;BME280_humidity;BME280_pressure;Samples;Min_cycle;Max_cycle;Signal;HPM_P1;HPM_P2
2022/11/09 00:00:06;;;;;;;1.77;0.80;;;17.50;99.90;;;;;;5053067;28;20651;-75
2022/11/09 00:02:31;;;;;;;1.47;0.90;;;17.40;99.90;;;;;;5035973;28;20173;-75
2022/11/09 00:04:57;;;;;;;2.47;0.90;;;17.40;99.90;;;;;;5032814;28;20635;-75
2022/11/09 00:07:28;;;;;;;1.60;0.60;;;17.40;99.90;;;;;;5033049;28;20205;-75
2022/11/09 00:09:54;;;;;;;1.50;0.70;;;17.40;99.90;;;;;;5048291;28;20591;-75
2022/11/09 00:12:22;;;;;;;1.50;0.70;;;17.40;99.90;;;;;;5051483;28;20575;-75
2022/11/09 00:14:47;;;;;;;1.70;0.80;;;17.40;99.90;;;;;;5052821;28;20606;-75
2022/11/09 00:17:15;;;;;;;1.80;0.80;;;17.40;99.90;;;;;;5054036;28;20165;-75
2022/11/09 00:19:41;;;;;;;2.13;0.60;;;17.40;99.90;;;;;;5053587;28;20248;-75
2022/11/09 00:22:07;;;;;;;2.07;0.60;;;17.40;99.90;;;;;;5034338;28;21183;-75
2022/11/09 00:24:32;;;;;;;2.93;0.80;;;17.40;99.90;;;;;;5052686;28;20193;-75
2022/11/09 00:27:00;;;;;;;2.03;0.80;;;17.40;99.90;;;;;;5052861;28;20263;-75
2022/11/09 00:29:27;;;;;;;1.60;0.67;;;17.40;99.90;;;;;;5052747;28;20568;-75
2022/11/09 00:31:53;;;;;;;1.63;0.73;;;17.40;99.90;;;;;;5052558;28;20570;-75
2022/11/09 00:34:19;;;;;;;1.87;0.70;;;17.40;99.90;;;;;;5052068;28;20606;-75
2022/11/09 00:36:45;;;;;;;1.73;0.70;;;17.40;99.90;;;;;;5052610;28;20666;-77
2022/11/09 00:39:10;;;;;;;1.70;0.70;;;17.40;99.90;;;;;;5052278;28;20706;-75
2022/11/09 00:41:36;;;;;;;1.40;0.67;;;17.40;99.90;;;;;;5050982;28;20180;-74
2022/11/09 00:44:02;;;;;;;4.50;0.70;;;17.40;99.90;;;;;;5034170;28;20191;-75
2022/11/09 00:46:28;;;;;;;2.37;0.70;;;17.40;99.90;;;;;;5034730;28;20172;-75
2022/11/09 00:48:54;;;;;;;2.47;0.80;;;17.40;99.90;;;;;;5052321;28;21130;-74
2022/11/09 00:51:21;;;;;;;2.13;0.80;;;17.40;99.90;;;;;;5050985;28;20250;-74
2022/11/09 00:53:53;;;;;;;3.33;0.70;;;17.40;99.90;;;;;;5052505;28;20702;-75
2022/11/09 00:56:21;;;;;;;1.77;0.70;;;17.40;99.90;;;;;;5055890;28;20579;-76
2022/11/09 00:58:50;;;;;;;1.73;0.77;;;17.40;99.90;;;;;;5052036;28;20623;-75
2022/11/09 01:01:19;;;;;;;1.67;0.87;;;17.40;99.90;;;;;;5050604;28;20615;-75
2022/11/09 01:03:47;;;;;;;1.87;0.80;;;17.40;99.90;;;;;;5049938;28;20673;-75
2022/11/09 01:06:19;;;;;;;4.70;1.20;;;17.30;99.90;;;;;;5050823;28;20541;-75
2022/11/09 01:08:45;;;;;;;1.60;0.70;;;17.30;99.90;;;;;;5051750;28;20941;-75
2022/11/09 01:11:14;;;;;;;1.30;0.60;;;17.30;99.90;;;;;;5050710;28;20943;-75
2022/11/09 01:13:40;;;;;;;2.87;0.70;;;17.30;99.90;;;;;;5033696;28;20665;-75
2022/11/09 01:16:14;;;;;;;1.70;0.60;;;17.30;99.90;;;;;;5050795;28;21150;-75
2022/11/09 01:18:40;;;;;;;1.43;0.60;;;17.20;99.90;;;;;;5051696;28;21029;-75
2022/11/09 01:21:09;;;;;;;1.30;0.60;;;17.20;99.90;;;;;;5017468;28;20633;-75
2022/11/09 01:23:35;;;;;;;2.80;1.03;;;17.20;99.90;;;;;;5033644;28;20599;-75
2022/11/09 01:26:03;;;;;;;2.07;0.80;;;17.20;99.90;;;;;;5051432;28;20613;-75
2022/11/09 01:28:29;;;;;;;5.13;0.90;;;17.30;99.90;;;;;;5033746;28;20937;-75
2022/11/09 01:31:00;;;;;;;1.70;0.80;;;17.20;99.90;;;;;;5051540;28;20662;-75
2022/11/09 01:33:27;;;;;;;2.00;0.70;;;17.30;99.90;;;;;;5020101;28;21186;-75
2022/11/09 01:35:53;;;;;;;2.17;0.80;;;17.30;99.90;;;;;;5033351;28;20939;-74
2022/11/09 01:38:22;;;;;;;1.83;0.90;;;17.30;99.90;;;;;;5034228;28;20676;-75
2022/11/09 01:40:47;;;;;;;1.77;0.60;;;17.30;99.90;;;;;;5033776;28;20596;-75
2022/11/09 01:43:16;;;;;;;2.43;0.70;;;17.30;99.90;;;;;;5033251;28;20192;-75
2022/11/09 01:45:47;;;;;;;3.50;0.60;;;17.30;99.90;;;;;;5050349;28;20299;-75
2022/11/09 01:48:34;;;;;;;1.47;0.60;;;17.30;99.90;;;;;;5033670;28;20590;-75
2022/11/09 01:51:30;;;;;;;2.07;0.77;;;17.30;99.90;;;;;;5051515;28;20670;-75
2022/11/09 01:54:03;;;;;;;1.87;0.70;;;17.30;99.90;;;;;;5027695;28;20631;-75
2022/11/09 01:56:30;;;;;;;2.33;0.70;;;17.30;99.90;;;;;;5033747;28;20627;-75
2022/11/09 01:59:04;;;;;;;1.50;0.57;;;17.30;99.90;;;;;;5017029;28;21197;-75
2022/11/09 02:01:30;;;;;;;2.37;0.70;;;17.30;99.90;;;;;;5016904;28;20571;-75
2022/11/09 02:04:14;;;;;;;1.73;0.80;;;17.20;99.90;;;;;;5050816;28;20710;-75
2022/11/09 02:06:40;;;;;;;1.20;0.50;;;17.20;99.90;;;;;;5050266;28;20720;-75
2022/11/09 02:09:15;;;;;;;1.50;0.63;;;17.20;99.90;;;;;;5053678;28;20611;-75
2022/11/09 02:11:42;;;;;;;1.30;0.60;;;17.20;99.90;;;;;;5033407;28;20266;-76
2022/11/09 02:14:09;;;;;;;1.90;0.80;;;17.10;99.90;;;;;;5049933;28;20669;-75
2022/11/09 02:16:35;;;;;;;3.40;0.70;;;17.10;99.90;;;;;;5049889;28;20619;-75
2022/11/09 02:19:01;;;;;;;2.10;0.70;;;17.10;99.90;;;;;;5051020;28;20637;-76
2022/11/09 02:21:30;;;;;;;2.33;0.60;;;17.10;99.90;;;;;;5033236;28;20591;-75
2022/11/09 02:23:56;;;;;;;2.17;0.67;;;17.10;99.90;;;;;;5050863;28;20704;-75
2022/11/09 02:26:32;;;;;;;1.40;0.60;;;17.10;99.90;;;;;;5049937;28;20571;-75
2022/11/09 02:29:01;;;;;;;2.10;0.70;;;17.00;99.90;;;;;;5049986;28;20574;-75
2022/11/09 02:31:32;;;;;;;2.20;0.70;;;17.00;99.90;;;;;;5049698;28;20669;-76
2022/11/09 02:34:04;;;;;;;2.13;1.10;;;17.00;99.90;;;;;;5033129;28;20595;-75
2022/11/09 02:36:31;;;;;;;3.50;0.60;;;17.00;99.90;;;;;;5050980;28;20568;-75
2022/11/09 02:39:01;;;;;;;1.80;0.90;;;17.00;99.90;;;;;;5033122;28;20638;-75
2022/11/09 02:41:30;;;;;;;2.93;1.00;;;16.90;99.90;;;;;;5016697;28;20570;-76
2022/11/09 02:43:59;;;;;;;2.17;0.70;;;16.90;99.90;;;;;;5034292;28;21074;-75
2022/11/09 02:46:36;;;;;;;2.00;0.60;;;16.90;99.90;;;;;;5057989;28;20578;-75
2022/11/09 02:49:02;;;;;;;1.80;0.70;;;16.90;99.90;;;;;;5053530;28;20602;-75
2022/11/09 02:51:29;;;;;;;1.60;0.80;;;16.90;99.90;;;;;;5053290;28;20587;-75
2022/11/09 02:53:56;;;;;;;1.70;0.90;;;16.90;99.90;;;;;;5052763;28;20603;-74
2022/11/09 02:56:22;;;;;;;2.63;0.80;;;16.90;99.90;;;;;;5052849;28;20637;-75
2022/11/09 02:58:48;;;;;;;3.93;0.70;;;16.90;99.90;;;;;;5036591;28;20618;-74
2022/11/09 03:01:17;;;;;;;2.13;0.87;;;16.90;99.90;;;;;;5037243;28;20593;-74
2022/11/09 03:03:43;;;;;;;2.43;0.80;;;16.90;99.90;;;;;;5053387;28;20618;-75
2022/11/09 03:06:11;;;;;;;2.60;0.80;;;16.90;99.90;;;;;;5020072;28;20585;-75
2022/11/09 03:08:37;;;;;;;2.17;0.70;;;16.90;99.90;;;;;;5036351;28;20598;-75
2022/11/09 03:11:04;;;;;;;2.67;0.80;;;16.90;99.90;;;;;;5052904;28;20574;-73
2022/11/09 03:13:32;;;;;;;2.43;0.80;;;17.00;99.90;;;;;;5052570;28;20562;-73
2022/11/09 03:16:04;;;;;;;1.60;0.70;;;16.90;99.90;;;;;;5036335;28;21126;-75
2022/11/09 03:18:30;;;;;;;1.40;0.60;;;17.00;99.90;;;;;;5054176;28;20627;-75
2022/11/09 03:21:03;;;;;;;2.23;0.70;;;17.00;99.90;;;;;;5052889;28;20624;-75
2022/11/09 03:23:30;;;;;;;4.70;1.03;;;17.00;99.90;;;;;;5039926;28;21234;-75
2022/11/09 03:25:56;;;;;;;2.37;0.70;;;17.00;99.90;;;;;;5052514;28;20576;-75
2022/11/09 03:28:22;;;;;;;1.97;0.73;;;17.00;99.90;;;;;;5036181;28;20587;-75
2022/11/09 03:30:49;;;;;;;1.40;0.60;;;17.00;99.90;;;;;;5052546;28;20599;-75
2022/11/09 03:33:15;;;;;;;1.77;0.60;;;17.10;99.90;;;;;;5052013;28;20678;-75
2022/11/09 03:35:58;;;;;;;1.40;0.63;;;17.10;99.90;;;;;;5035917;28;20165;-75
2022/11/09 03:38:24;;;;;;;1.80;0.60;;;17.10;99.90;;;;;;5053707;28;20200;-75
2022/11/09 03:40:50;;;;;;;2.03;0.70;;;17.10;99.90;;;;;;5035595;28;20571;-75
2022/11/09 03:43:16;;;;;;;2.20;0.70;;;17.10;99.90;;;;;;5052039;28;20189;-75
2022/11/09 03:45:42;;;;;;;1.80;0.70;;;17.10;99.90;;;;;;5052295;28;21188;-74
2022/11/09 03:48:08;;;;;;;1.63;0.70;;;17.10;99.90;;;;;;5053510;28;20567;-74
2022/11/09 03:50:39;;;;;;;1.50;0.70;;;17.10;99.90;;;;;;5035541;28;20172;-74
2022/11/09 03:53:10;;;;;;;3.67;0.70;;;17.10;99.90;;;;;;5051584;28;20603;-75
2022/11/09 03:55:37;;;;;;;2.07;1.10;;;17.10;99.90;;;;;;5053193;28;21123;-75
2022/11/09 03:58:04;;;;;;;1.60;0.60;;;17.10;99.90;;;;;;5052072;28;20615;-74
2022/11/09 04:00:30;;;;;;;1.80;0.73;;;17.10;99.90;;;;;;5038249;28;20614;-75
2022/11/09 04:02:58;;;;;;;2.33;0.73;;;17.10;99.90;;;;;;5052893;28;20917;-75
2022/11/09 04:05:24;;;;;;;1.50;0.70;;;17.10;99.90;;;;;;5033622;28;20591;-76
2022/11/09 04:07:54;;;;;;;4.27;0.80;;;17.10;99.90;;;;;;5031816;28;20599;-75
2022/11/09 04:10:21;;;;;;;2.40;0.77;;;17.10;99.90;;;;;;5013367;28;20576;-75
2022/11/09 04:12:47;;;;;;;2.37;0.80;;;17.10;99.90;;;;;;5012946;28;20568;-75
2022/11/09 04:15:16;;;;;;;1.53;0.97;;;17.10;99.90;;;;;;5012070;28;20605;-75
2022/11/09 04:17:43;;;;;;;1.83;0.70;;;17.10;99.90;;;;;;5040616;28;20670;-76
2022/11/09 04:20:10;;;;;;;1.60;0.80;;;17.10;99.90;;;;;;5052058;28;20583;-77
2022/11/09 04:22:36;;;;;;;2.33;0.83;;;17.20;99.90;;;;;;5023438;28;20571;-76
2022/11/09 04:25:02;;;;;;;4.03;1.03;;;17.10;99.90;;;;;;5047351;28;20664;-76
2022/11/09 04:27:28;;;;;;;1.50;0.73;;;17.20;99.90;;;;;;5032010;28;20650;-75
2022/11/09 04:29:56;;;;;;;1.67;0.67;;;17.20;99.90;;;;;;5029938;28;20603;-76
2022/11/09 04:32:22;;;;;;;2.30;0.80;;;17.20;99.90;;;;;;5012752;28;20619;-76
2022/11/09 04:34:48;;;;;;;1.77;0.80;;;17.20;99.90;;;;;;5012871;28;20991;-76
2022/11/09 04:37:16;;;;;;;1.80;1.00;;;17.30;99.90;;;;;;5014776;28;20615;-76
2022/11/09 04:39:42;;;;;;;2.57;0.60;;;17.30;99.90;;;;;;5014154;28;20166;-76
2022/11/09 04:42:10;;;;;;;1.57;0.70;;;17.30;99.90;;;;;;5012507;28;20654;-76
2022/11/09 04:44:36;;;;;;;1.80;0.60;;;17.30;99.90;;;;;;4995323;28;20243;-76
2022/11/09 04:47:01;;;;;;;1.63;0.60;;;17.30;99.90;;;;;;4978955;28;20664;-76
2022/11/09 04:49:27;;;;;;;2.90;0.60;;;17.30;99.90;;;;;;4995183;28;20166;-75
2022/11/09 04:51:53;;;;;;;1.67;0.67;;;17.30;99.90;;;;;;4994785;28;20178;-76
2022/11/09 04:54:19;;;;;;;5.87;0.80;;;17.30;99.90;;;;;;5012599;28;20201;-75
2022/11/09 04:56:44;;;;;;;2.60;0.70;;;17.30;99.90;;;;;;4995707;28;20239;-76
2022/11/09 04:59:10;;;;;;;3.43;0.70;;;17.30;99.90;;;;;;5012599;28;20217;-76
2022/11/09 05:01:36;;;;;;;2.70;0.70;;;17.30;99.90;;;;;;5012368;28;20175;-76
2022/11/09 05:04:01;;;;;;;2.63;0.80;;;17.40;99.90;;;;;;5012116;28;20198;-75
2022/11/09 05:06:30;;;;;;;3.17;0.70;;;17.30;99.90;;;;;;5011885;28;20249;-75
2022/11/09 05:08:57;;;;;;;2.30;0.70;;;17.30;99.90;;;;;;5029055;28;20690;-75
2022/11/09 05:11:23;;;;;;;1.70;0.67;;;17.30;99.90;;;;;;5051963;28;21182;-75
2022/11/09 05:13:52;;;;;;;1.50;0.70;;;17.30;99.90;;;;;;5051735;28;20834;-75
2022/11/09 05:16:18;;;;;;;2.00;0.70;;;17.20;99.90;;;;;;5053945;28;20670;-75
2022/11/09 05:18:44;;;;;;;1.87;0.70;;;17.20;99.90;;;;;;5051739;28;21178;-75
2022/11/09 05:21:10;;;;;;;2.83;0.90;;;17.20;99.90;;;;;;5050683;28;20670;-75
2022/11/09 05:26:21;;;;;;;3.67;0.80;;;17.20;99.90;;;;;;5018253;28;20626;-75
2022/11/09 05:28:46;;;;;;;4.00;0.80;;;17.10;99.90;;;;;;5014367;28;20576;-75
2022/11/09 05:31:12;;;;;;;4.33;0.73;;;17.10;99.90;;;;;;5014009;28;20516;-75
2022/11/09 05:33:38;;;;;;;2.27;0.77;;;17.00;99.90;;;;;;5031331;28;20193;-75
2022/11/09 05:36:04;;;;;;;3.00;0.70;;;17.00;99.90;;;;;;5031771;28;20571;-75
2022/11/09 05:38:31;;;;;;;3.87;0.70;;;17.00;99.90;;;;;;5014200;28;20229;-75
2022/11/09 05:40:56;;;;;;;2.37;0.60;;;16.90;99.90;;;;;;5030365;28;20576;-74
2022/11/09 05:43:22;;;;;;;5.23;0.70;;;16.90;99.90;;;;;;5031361;28;20646;-74
2022/11/09 05:45:48;;;;;;;1.93;0.70;;;16.80;99.90;;;;;;5031763;28;20157;-74
2022/11/09 05:48:18;;;;;;;2.90;0.80;;;16.80;99.90;;;;;;5030653;28;21123;-75
2022/11/09 05:50:44;;;;;;;1.90;0.70;;;16.80;99.90;;;;;;5031786;28;20166;-75
2022/11/09 05:53:25;;;;;;;5.20;1.43;;;16.80;99.90;;;;;;5033736;28;20703;-75
2022/11/09 05:55:53;;;;;;;2.10;0.90;;;16.80;99.90;;;;;;5030540;28;20579;-75
2022/11/09 05:58:21;;;;;;;1.50;0.60;;;16.80;99.90;;;;;;4998252;28;20663;-75
2022/11/09 06:00:47;;;;;;;2.90;0.90;;;16.70;99.90;;;;;;5013820;28;21001;-74
2022/11/09 06:03:12;;;;;;;3.40;0.80;;;16.70;99.90;;;;;;5030934;28;20748;-75
2022/11/09 06:05:39;;;;;;;3.50;0.80;;;16.70;99.90;;;;;;5031259;28;20169;-75
2022/11/09 06:08:14;;;;;;;1.90;0.87;;;16.70;99.90;;;;;;5015514;28;20174;-75
2022/11/09 06:10:41;;;;;;;3.83;0.80;;;16.70;99.90;;;;;;5051311;28;20605;-75
2022/11/09 06:13:07;;;;;;;4.93;1.27;;;16.70;99.90;;;;;;5050239;28;20571;-75
2022/11/09 06:15:33;;;;;;;4.07;0.80;;;16.60;99.90;;;;;;5027122;28;20580;-75
2022/11/09 06:17:59;;;;;;;6.57;1.20;;;16.60;99.90;;;;;;5040544;28;20652;-74
2022/11/09 06:20:26;;;;;;;2.70;0.83;;;16.60;99.90;;;;;;5044893;28;20174;-74
2022/11/09 06:22:56;;;;;;;1.67;0.80;;;16.60;99.90;;;;;;5040374;28;20617;-74
2022/11/09 06:25:22;;;;;;;2.20;1.10;;;16.70;99.90;;;;;;5022420;28;20645;-74
2022/11/09 06:27:53;;;;;;;3.20;1.00;;;16.70;99.90;;;;;;5037822;28;20588;-75
2022/11/09 06:30:20;;;;;;;1.97;1.03;;;16.70;99.90;;;;;;5052094;28;20667;-75
2022/11/09 06:32:45;;;;;;;3.43;0.90;;;16.80;99.90;;;;;;5055053;28;20622;-75
2022/11/09 06:35:14;;;;;;;2.53;1.10;;;16.80;99.90;;;;;;5050676;28;20939;-74
2022/11/09 06:37:40;;;;;;;3.00;0.97;;;16.80;99.90;;;;;;5029933;28;20987;-75
2022/11/09 06:40:06;;;;;;;3.40;0.80;;;16.80;99.90;;;;;;5056707;28;20571;-75
2022/11/09 06:42:32;;;;;;;3.83;1.00;;;16.80;99.90;;;;;;5055224;28;20622;-75
2022/11/09 06:45:01;;;;;;;3.60;0.80;;;16.70;99.90;;;;;;5038323;28;20665;-76
2022/11/09 06:47:27;;;;;;;2.00;0.80;;;16.70;99.90;;;;;;5055524;28;20576;-76
2022/11/09 06:49:56;;;;;;;2.73;0.80;;;16.60;99.90;;;;;;5055766;28;20592;-76
2022/11/09 06:52:21;;;;;;;2.70;0.90;;;16.50;99.90;;;;;;5037082;28;20679;-76
2022/11/09 06:54:47;;;;;;;2.03;0.80;;;16.50;99.90;;;;;;5055272;28;20196;-75
2022/11/09 06:57:13;;;;;;;1.80;0.70;;;16.40;99.90;;;;;;5053628;28;20165;-75
2022/11/09 06:59:39;;;;;;;2.47;1.13;;;16.30;99.90;;;;;;5034065;28;20181;-75
2022/11/09 07:02:05;;;;;;;3.30;0.90;;;16.30;99.90;;;;;;5015704;28;20615;-75
2022/11/09 07:04:31;;;;;;;3.83;0.80;;;16.20;99.90;;;;;;5016569;28;20651;-75
2022/11/09 07:06:57;;;;;;;2.53;0.80;;;16.10;99.90;;;;;;5020031;28;21234;-75
2022/11/09 07:09:25;;;;;;;3.10;1.10;;;16.10;99.90;;;;;;5045886;28;20200;-75
2022/11/09 07:11:56;;;;;;;3.50;1.33;;;16.10;99.90;;;;;;5053927;28;20173;-75
2022/11/09 07:14:22;;;;;;;2.43;1.00;;;16.10;99.90;;;;;;5053862;28;21225;-75
2022/11/09 07:16:48;;;;;;;3.07;0.97;;;16.10;99.90;;;;;;5053941;28;20575;-74
2022/11/09 07:19:14;;;;;;;3.00;1.07;;;16.00;99.90;;;;;;5052355;28;20627;-75
2022/11/09 07:21:42;;;;;;;2.87;0.90;;;16.00;99.90;;;;;;5053585;28;20165;-75
2022/11/09 07:24:08;;;;;;;3.20;0.90;;;16.00;99.90;;;;;;5053180;28;20690;-75
2022/11/09 07:26:34;;;;;;;3.23;0.87;;;16.00;99.90;;;;;;5036770;28;20169;-77
2022/11/09 07:29:00;;;;;;;3.40;0.90;;;16.00;99.90;;;;;;5052931;28;20197;-76
2022/11/09 07:31:28;;;;;;;3.27;1.10;;;16.00;99.90;;;;;;5053831;28;20675;-76
2022/11/09 07:33:54;;;;;;;3.07;1.00;;;16.10;99.90;;;;;;5049347;28;20224;-76
2022/11/09 07:36:20;;;;;;;3.30;1.00;;;16.10;99.90;;;;;;5039955;28;20729;-75
2022/11/09 07:38:46;;;;;;;3.83;1.10;;;16.10;99.90;;;;;;5053444;28;21272;-75
2022/11/09 07:41:12;;;;;;;3.80;1.00;;;16.10;99.90;;;;;;5038720;28;20171;-75
2022/11/09 07:43:40;;;;;;;4.70;1.73;;;16.00;99.90;;;;;;5055401;28;20185;-75
2022/11/09 07:46:06;;;;;;;2.80;1.13;;;16.00;99.90;;;;;;5037952;28;20726;-75
2022/11/09 07:48:32;;;;;;;2.57;1.00;;;16.00;99.90;;;;;;5047206;28;20679;-76
2022/11/09 07:51:00;;;;;;;4.83;1.60;;;16.00;99.90;;;;;;5053436;28;20571;-75
2022/11/09 07:53:26;;;;;;;3.70;1.40;;;16.00;99.90;;;;;;5054773;28;20189;-76
2022/11/09 07:55:56;;;;;;;5.20;1.00;;;16.00;99.90;;;;;;5058535;28;20597;-76
2022/11/09 07:58:22;;;;;;;2.70;0.97;;;16.10;99.90;;;;;;5057885;28;20227;-74
2022/11/09 08:00:48;;;;;;;5.73;1.27;;;16.10;99.90;;;;;;5035805;28;20575;-75
2022/11/09 08:03:13;;;;;;;3.10;1.80;;;16.10;99.90;;;;;;5054668;28;20185;-75
2022/11/09 08:05:40;;;;;;;3.40;1.30;;;16.10;99.90;;;;;;5052925;28;20283;-75
2022/11/09 08:08:09;;;;;;;2.03;1.00;;;16.20;99.90;;;;;;5053941;28;20230;-75
2022/11/09 08:10:40;;;;;;;2.77;1.03;;;16.20;99.90;;;;;;5055671;28;20579;-74
2022/11/09 08:13:09;;;;;;;4.33;1.20;;;16.20;99.90;;;;;;5053118;28;20632;-75
2022/11/09 08:15:38;;;;;;;2.90;1.00;;;16.30;99.90;;;;;;5054203;28;20575;-75
2022/11/09 08:18:20;;;;;;;5.57;0.80;;;16.30;99.90;;;;;;5037094;28;20615;-75
2022/11/09 08:20:46;;;;;;;3.53;1.10;;;16.40;99.90;;;;;;5039323;28;21153;-75
2022/11/09 08:23:13;;;;;;;3.43;1.40;;;16.40;99.90;;;;;;5052615;28;20657;-75
2022/11/09 08:25:40;;;;;;;2.23;0.80;;;16.50;99.90;;;;;;5053130;28;20563;-75
2022/11/09 08:28:08;;;;;;;7.37;0.90;;;16.60;99.90;;;;;;5052445;28;20625;-75
2022/11/09 08:30:34;;;;;;;2.10;0.80;;;16.60;99.90;;;;;;5055350;28;20706;-75
2022/11/09 08:33:01;;;;;;;2.57;0.90;;;16.80;99.90;;;;;;5053342;28;20607;-75
2022/11/09 08:35:28;;;;;;;2.67;0.80;;;16.80;99.90;;;;;;5052272;28;20165;-75
2022/11/09 08:37:54;;;;;;;3.17;1.03;;;16.90;99.90;;;;;;5052842;28;20721;-73
2022/11/09 08:40:24;;;;;;;2.73;0.93;;;17.00;99.90;;;;;;5034784;28;20950;-75
2022/11/09 08:42:51;;;;;;;3.50;0.70;;;17.10;99.90;;;;;;5051873;28;20559;-75
2022/11/09 08:45:18;;;;;;;2.30;0.90;;;17.20;99.90;;;;;;5052741;28;20604;-74
2022/11/09 08:47:45;;;;;;;2.13;1.10;;;17.20;99.90;;;;;;5051462;28;20571;-75
2022/11/09 08:50:13;;;;;;;2.80;0.90;;;17.30;99.90;;;;;;5043809;28;20575;-75
2022/11/09 08:52:40;;;;;;;3.20;1.40;;;17.40;99.90;;;;;;5052821;28;20647;-74
2022/11/09 08:55:06;;;;;;;3.10;1.10;;;17.50;99.90;;;;;;5034631;28;20638;-74
2022/11/09 08:57:35;;;;;;;4.13;1.67;;;17.60;99.90;;;;;;5038046;28;20667;-75
2022/11/09 09:00:01;;;;;;;3.00;1.20;;;17.70;99.90;;;;;;5035020;28;20583;-75
2022/11/09 09:02:26;;;;;;;3.10;1.00;;;17.80;99.90;;;;;;5026943;28;20634;-75
2022/11/09 09:04:52;;;;;;;2.50;0.93;;;17.90;99.90;;;;;;5033719;28;21247;-75
2022/11/09 09:07:18;;;;;;;1.93;0.90;;;18.10;99.90;;;;;;5032299;28;20212;-74
2022/11/09 09:09:46;;;;;;;3.93;0.97;;;18.20;99.90;;;;;;5046866;28;20177;-73
2022/11/09 09:12:12;;;;;;;5.17;0.90;;;18.40;99.90;;;;;;5052107;28;20165;-74
2022/11/09 09:14:38;;;;;;;2.43;0.90;;;18.50;99.90;;;;;;5052043;28;20603;-74
2022/11/09 09:17:04;;;;;;;3.40;1.00;;;18.60;99.90;;;;;;5052064;28;20897;-74
2022/11/09 09:19:30;;;;;;;1.70;0.80;;;18.60;99.90;;;;;;5051961;28;20644;-73
2022/11/09 09:21:57;;;;;;;2.67;0.80;;;18.70;99.90;;;;;;5052026;28;20563;-74
2022/11/09 09:24:22;;;;;;;3.73;0.70;;;18.70;99.90;;;;;;5045885;28;20659;-74
2022/11/09 09:26:48;;;;;;;2.37;1.10;;;18.70;99.90;;;;;;5051923;28;20610;-74
2022/11/09 09:29:15;;;;;;;2.47;0.70;;;18.70;99.90;;;;;;5034990;28;20181;-75
2022/11/09 09:31:41;;;;;;;2.60;0.70;;;18.70;99.90;;;;;;5052390;28;20563;-75
2022/11/09 09:34:06;;;;;;;4.13;0.90;;;18.70;99.90;;;;;;5051213;28;21076;-75
2022/11/09 09:36:34;;;;;;;3.70;0.67;;;18.70;99.90;;;;;;5052700;28;20176;-75
2022/11/09 09:39:00;;;;;;;6.90;0.80;;;18.80;99.90;;;;;;5041211;28;20201;-75
2022/11/09 09:41:33;;;;;;;1.83;0.60;;;18.90;99.90;;;;;;5051009;28;20591;-75
2022/11/09 09:44:21;;;;;;;2.23;0.67;;;19.00;99.90;;;;;;5052157;28;20706;-75
2022/11/09 09:47:08;;;;;;;2.77;0.60;;;19.10;99.90;;;;;;5007224;28;20591;-74
2022/11/09 09:49:44;;;;;;;1.70;0.63;;;19.20;99.90;;;;;;5048302;28;20580;-74
2022/11/09 09:52:16;;;;;;;2.77;0.60;;;19.30;99.90;;;;;;4998262;28;20591;-74
2022/11/09 09:55:00;;;;;;;2.50;0.67;;;19.40;99.90;;;;;;5036375;28;21054;-74
2022/11/09 09:57:28;;;;;;;1.70;0.60;;;19.50;99.90;;;;;;5040471;28;20995;-75
2022/11/09 09:59:59;;;;;;;1.93;0.60;;;19.50;99.90;;;;;;5020511;28;20679;-74
2022/11/09 10:02:34;;;;;;;2.30;0.60;;;19.50;99.90;;;;;;5038201;28;21057;-74
2022/11/09 10:05:13;;;;;;;2.80;0.70;;;19.50;99.90;;;;;;5037747;28;21557;-75
2022/11/09 10:07:55;;;;;;;1.40;0.60;;;19.60;99.90;;;;;;5036293;28;20576;-75
2022/11/09 10:10:27;;;;;;;2.27;0.60;;;19.50;99.90;;;;;;5036205;28;20615;-74
2022/11/09 10:13:20;;;;;;;2.23;0.80;;;19.50;99.90;;;;;;5035554;28;20568;-74
2022/11/09 10:16:18;;;;;;;1.83;0.63;;;19.60;99.90;;;;;;5017890;28;20576;-74
2022/11/09 10:19:10;;;;;;;4.27;0.60;;;19.50;99.90;;;;;;5034393;28;20624;-74
2022/11/09 10:21:52;;;;;;;1.77;0.80;;;19.60;99.90;;;;;;5035394;28;20592;-74
2022/11/09 10:24:30;;;;;;;2.27;0.70;;;19.70;99.90;;;;;;5017592;28;20610;-74
2022/11/09 10:27:01;;;;;;;1.80;0.60;;;19.80;99.90;;;;;;5017522;28;20686;-74
2022/11/09 10:29:30;;;;;;;1.57;0.60;;;19.80;99.90;;;;;;5017586;28;20658;-75
2022/11/09 10:32:13;;;;;;;1.80;0.70;;;19.80;99.90;;;;;;5035084;28;21179;-74
2022/11/09 10:34:54;;;;;;;2.90;0.70;;;19.90;99.90;;;;;;5017799;28;20595;-74
2022/11/09 10:37:38;;;;;;;2.93;0.60;;;20.00;99.90;;;;;;5034937;28;20954;-74
2022/11/09 10:40:30;;;;;;;3.50;0.60;;;20.00;99.90;;;;;;5034924;28;20556;-74
2022/11/09 10:43:17;;;;;;;2.57;0.60;;;20.00;99.90;;;;;;5034783;28;20591;-74
2022/11/09 10:46:05;;;;;;;1.70;0.60;;;20.00;99.90;;;;;;5034808;28;20659;-74
2022/11/09 10:48:50;;;;;;;1.97;0.60;;;20.00;99.90;;;;;;5035451;28;20635;-75
2022/11/09 10:51:41;;;;;;;2.03;0.50;;;20.00;99.90;;;;;;5034042;28;20584;-75
2022/11/09 10:54:33;;;;;;;2.00;0.60;;;20.00;99.90;;;;;;5015411;28;20605;-74
2022/11/09 10:57:20;;;;;;;2.40;0.50;;;20.00;99.90;;;;;;5020887;28;20669;-75
2022/11/09 11:00:07;;;;;;;7.93;1.00;;;20.00;99.90;;;;;;5038197;28;20939;-73
2022/11/09 11:02:52;;;;;;;3.37;0.60;;;20.00;99.90;;;;;;5036898;28;20599;-74
2022/11/09 11:05:37;;;;;;;3.57;0.60;;;19.90;99.90;;;;;;5026888;28;20585;-74
2022/11/09 11:08:45;;;;;;;2.50;0.60;;;19.90;99.90;;;;;;5033981;28;20584;-74
2022/11/09 11:11:32;;;;;;;2.43;0.50;;;20.00;99.90;;;;;;4994652;28;20570;-74
2022/11/09 11:14:20;;;;;;;2.77;0.80;;;20.10;99.90;;;;;;5004240;28;21124;-74
2022/11/09 11:17:20;;;;;;;3.00;0.60;;;20.00;99.90;;;;;;4999573;28;20605;-74
2022/11/09 11:20:22;;;;;;;3.30;0.83;;;20.00;99.90;;;;;;5013960;28;21174;-73
2022/11/09 11:23:12;;;;;;;4.03;0.70;;;20.00;99.90;;;;;;4993687;28;20639;-73
2022/11/09 11:26:03;;;;;;;1.90;0.60;;;20.00;99.90;;;;;;4995005;28;20661;-74
2022/11/09 11:28:51;;;;;;;4.73;0.73;;;19.90;99.90;;;;;;4976953;28;20586;-74
2022/11/09 11:31:35;;;;;;;2.67;0.60;;;19.90;99.90;;;;;;5013235;28;20639;-74
2022/11/09 11:34:19;;;;;;;3.50;0.80;;;19.90;99.90;;;;;;5015884;28;20620;-74
2022/11/09 11:37:24;;;;;;;5.33;2.20;;;19.80;99.90;;;;;;5027091;28;20627;-74
2022/11/09 11:40:25;;;;;;;2.40;0.70;;;19.80;99.90;;;;;;5016518;28;20596;-75
2022/11/09 11:43:18;;;;;;;5.20;0.80;;;19.80;99.90;;;;;;5018446;28;20588;-75
2022/11/09 11:46:42;;;;;;;2.17;0.60;;;19.70;99.90;;;;;;5016947;28;20604;-75
2022/11/09 11:49:36;;;;;;;2.33;0.70;;;19.60;99.90;;;;;;5025351;28;20584;-75
2022/11/09 11:53:01;;;;;;;4.03;0.67;;;19.50;99.90;;;;;;5015309;28;20940;-75
2022/11/09 11:56:10;;;;;;;2.47;0.70;;;19.50;99.90;;;;;;5015110;28;20601;-75
2022/11/09 11:59:14;;;;;;;2.60;0.70;;;19.50;99.90;;;;;;5027675;28;20659;-73
2022/11/09 12:02:40;;;;;;;2.17;0.60;;;19.40;99.90;;;;;;5009931;28;20605;-75
2022/11/09 12:05:48;;;;;;;2.13;0.70;;;19.40;99.90;;;;;;5016738;28;20589;-75
2022/11/09 12:08:42;;;;;;;1.60;0.63;;;19.30;99.90;;;;;;5012625;28;20660;-75
2022/11/09 12:11:45;;;;;;;3.40;0.67;;;19.30;99.90;;;;;;4995401;28;20578;-74
2022/11/09 12:14:50;;;;;;;2.70;0.73;;;19.30;99.90;;;;;;5012978;28;20667;-75
2022/11/09 12:18:07;;;;;;;1.97;0.70;;;19.40;99.90;;;;;;5013193;28;20584;-75
2022/11/09 12:21:13;;;;;;;3.50;0.87;;;19.40;99.90;;;;;;5010151;28;20593;-75
2022/11/09 12:24:12;;;;;;;2.70;1.03;;;19.40;99.90;;;;;;5022209;28;20621;-76
2022/11/09 12:27:18;;;;;;;3.20;0.80;;;19.40;99.90;;;;;;5025005;28;20632;-75
2022/11/09 12:30:17;;;;;;;2.57;1.00;;;19.40;99.90;;;;;;5015782;28;20592;-75
2022/11/09 12:33:13;;;;;;;2.10;0.53;;;19.50;99.90;;;;;;5022501;28;20579;-74
2022/11/09 12:36:07;;;;;;;3.10;0.60;;;19.50;99.90;;;;;;4991673;28;21366;-74
2022/11/09 12:39:01;;;;;;;2.07;0.60;;;19.50;99.90;;;;;;4996063;28;20621;-74
2022/11/09 12:41:48;;;;;;;2.43;1.00;;;19.50;99.90;;;;;;5012584;28;20569;-75
2022/11/09 12:44:41;;;;;;;2.90;0.50;;;19.50;99.90;;;;;;5012992;28;20609;-74
2022/11/09 12:47:33;;;;;;;4.37;0.90;;;19.50;99.90;;;;;;4997788;28;20577;-74
2022/11/09 12:50:24;;;;;;;3.03;0.60;;;19.50;99.90;;;;;;5012746;28;20577;-74
2022/11/09 12:53:09;;;;;;;3.20;0.70;;;19.60;99.90;;;;;;4997439;28;20577;-74
2022/11/09 12:56:01;;;;;;;2.30;0.60;;;19.60;99.90;;;;;;5010315;28;20684;-74
2022/11/09 12:58:48;;;;;;;3.00;0.70;;;19.60;99.90;;;;;;4993139;28;20630;-74
2022/11/09 13:01:35;;;;;;;4.70;0.80;;;19.60;99.90;;;;;;4991605;28;21124;-75
2022/11/09 13:04:21;;;;;;;2.57;0.70;;;19.70;99.90;;;;;;4990917;28;20645;-75
2022/11/09 13:07:06;;;;;;;4.50;1.17;;;19.70;99.90;;;;;;5005476;28;20581;-74
2022/11/09 13:09:55;;;;;;;4.30;0.70;;;19.70;99.90;;;;;;5012361;28;20574;-76
2022/11/09 13:12:42;;;;;;;4.80;0.90;;;19.80;99.90;;;;;;5011364;28;20587;-74
2022/11/09 13:15:29;;;;;;;3.03;1.00;;;19.80;99.90;;;;;;5011340;28;20569;-75
2022/11/09 13:18:44;;;;;;;2.63;0.70;;;19.80;99.90;;;;;;5012721;28;21043;-74
2022/11/09 13:21:30;;;;;;;2.00;0.60;;;19.80;99.90;;;;;;4994000;28;20605;-75